createdAt,value
2023-03-05T00:02:06.944Z,66.88
2023-03-05T00:04:34.357Z,63.45
2023-03-05T00:07:01.665Z,63.67
2023-03-05T00:09:29.066Z,65.03
2023-03-05T00:11:56.421Z,60.33
2023-03-05T00:14:23.756Z,62.95
2023-03-05T00:16:51.532Z,59.85
2023-03-05T00:19:18.852Z,65.97
2023-03-05T00:21:46.141Z,63.58
2023-03-05T00:24:16.692Z,65.57
2023-03-05T00:26:44.571Z,66.55
2023-03-05T00:29:14.812Z,68.43
2023-03-05T00:31:44.208Z,68.25
2023-03-05T00:34:13.570Z,67.63
2023-03-05T00:36:42.269Z,67.30
2023-03-05T00:39:09.993Z,61.97
2023-03-05T00:41:37.390Z,67.90
2023-03-05T00:44:04.890Z,69.03
2023-03-05T00:46:32.312Z,65.03
2023-03-05T00:48:59.634Z,64.13
2023-03-05T00:51:27.460Z,66.72
2023-03-05T00:53:54.946Z,68.38
2023-03-05T00:56:22.455Z,72.25
2023-03-05T00:58:49.746Z,72.22
2023-03-05T01:01:17.261Z,66.30
2023-03-05T01:03:44.625Z,70.53
2023-03-05T01:06:13.129Z,66.85
2023-03-05T01:08:40.481Z,63.80
2023-03-05T01:11:08.543Z,63.30
2023-03-05T01:13:36.403Z,68.40
2023-03-05T01:16:04.066Z,68.10
2023-03-05T01:18:31.390Z,66.38
2023-03-05T01:20:58.711Z,69.20
2023-03-05T01:23:26.055Z,64.70
2023-03-05T01:25:57.179Z,68.38
2023-03-05T01:28:24.635Z,70.88
2023-03-05T01:30:51.954Z,62.03
2023-03-05T01:33:19.322Z,67.03
2023-03-05T01:35:47.766Z,63.50
2023-03-05T01:38:15.414Z,66.63
2023-03-05T01:40:43.433Z,65.65
2023-03-05T01:43:20.028Z,62.90
2023-03-05T01:46:21.653Z,65.55
2023-03-05T01:48:58.032Z,67.90
2023-03-05T01:51:27.665Z,68.30
2023-03-05T01:53:55.314Z,70.00
2023-03-05T01:56:22.690Z,70.82
2023-03-05T01:58:50.560Z,71.68
2023-03-05T02:01:18.684Z,66.18
2023-03-05T02:03:46.615Z,68.60
2023-03-05T02:06:13.931Z,68.97
2023-03-05T02:08:41.253Z,72.38
2023-03-05T02:11:08.561Z,69.55
2023-03-05T02:13:38.259Z,66.45
2023-03-05T02:16:05.800Z,62.53
2023-03-05T02:18:33.266Z,65.13
2023-03-05T02:21:03.925Z,67.70
2023-03-05T02:23:33.830Z,65.93
2023-03-05T02:26:01.176Z,68.57
2023-03-05T02:28:42.647Z,68.93
2023-03-05T02:31:13.177Z,68.72
2023-03-05T02:33:40.473Z,68.60
2023-03-05T02:36:08.673Z,69.57
2023-03-05T02:38:36.419Z,67.65
2023-03-05T02:41:03.879Z,70.63
2023-03-05T02:43:31.396Z,67.55
2023-03-05T02:45:58.814Z,67.50
2023-03-05T02:48:26.181Z,71.15
2023-03-05T02:50:53.678Z,71.30
2023-03-05T02:53:22.697Z,68.05
2023-03-05T02:55:50.642Z,70.05
2023-03-05T02:58:18.160Z,65.03
2023-03-05T03:00:46.769Z,66.85
2023-03-05T03:03:14.267Z,66.97
2023-03-05T03:05:41.665Z,62.80
2023-03-05T03:08:10.410Z,66.70
2023-03-05T03:10:37.787Z,65.78
2023-03-05T03:13:05.151Z,66.05
2023-03-05T03:15:32.461Z,63.47
2023-03-05T03:17:59.774Z,61.85
2023-03-05T03:20:27.168Z,67.22
2023-03-05T03:22:54.580Z,61.95
2023-03-05T03:25:23.150Z,60.65
2023-03-05T03:27:52.557Z,61.63
2023-03-05T03:30:19.998Z,65.35
2023-03-05T03:32:47.273Z,65.65
2023-03-05T03:35:14.670Z,61.47
2023-03-05T03:37:41.998Z,69.22
2023-03-05T03:40:10.010Z,59.92
2023-03-05T03:42:42.355Z,67.80
2023-03-05T03:45:10.411Z,65.25
2023-03-05T03:47:37.758Z,65.72
2023-03-05T03:50:05.453Z,59.28
2023-03-05T03:52:32.757Z,66.35
2023-03-05T03:55:02.082Z,66.00
2023-03-05T03:57:33.504Z,63.95
2023-03-05T04:00:00.979Z,66.03
2023-03-05T04:02:28.433Z,62.63
2023-03-05T04:04:55.844Z,59.78
2023-03-05T04:07:23.122Z,70.93
2023-03-05T04:09:50.518Z,63.80
2023-03-05T04:12:20.586Z,58.30
2023-03-05T04:14:48.375Z,68.60
2023-03-05T04:17:15.885Z,61.80
2023-03-05T04:19:43.332Z,67.30
2023-03-05T04:22:11.944Z,60.85
2023-03-05T04:24:39.294Z,64.05
2023-03-05T04:27:06.718Z,63.85
2023-03-05T04:29:34.320Z,62.85
2023-03-05T04:32:01.846Z,63.20
2023-03-05T04:34:29.218Z,64.25
2023-03-05T04:36:56.490Z,62.80
2023-03-05T04:39:23.842Z,63.67
2023-03-05T04:41:51.163Z,67.28
2023-03-05T04:44:19.177Z,64.75
2023-03-05T04:46:46.493Z,62.42
2023-03-05T04:49:13.828Z,63.92
2023-03-05T04:51:41.336Z,71.80
2023-03-05T04:54:08.660Z,64.10
2023-03-05T04:56:36.045Z,61.40
2023-03-05T04:59:03.410Z,66.22
2023-03-05T05:01:30.838Z,63.08
2023-03-05T05:03:58.234Z,65.18
2023-03-05T05:06:25.557Z,68.75
2023-03-05T05:08:52.831Z,66.68
2023-03-05T05:11:20.122Z,66.53
2023-03-05T05:13:47.397Z,62.70
2023-03-05T05:16:15.598Z,66.03
2023-03-05T05:18:42.975Z,68.68
2023-03-05T05:21:10.885Z,66.25
2023-03-05T05:23:38.601Z,70.97
2023-03-05T05:26:07.320Z,57.15
2023-03-05T05:28:35.294Z,65.45
2023-03-05T05:31:07.719Z,64.60
2023-03-05T05:33:35.212Z,67.20
2023-03-05T05:36:06.269Z,68.97
2023-03-05T05:38:33.752Z,68.00
2023-03-05T05:41:05.311Z,69.63
2023-03-05T05:43:32.831Z,70.90
2023-03-05T05:46:04.460Z,68.15
2023-03-05T05:48:32.864Z,70.72
2023-03-05T05:51:00.265Z,70.93
2023-03-05T05:53:27.599Z,69.85
2023-03-05T05:55:54.916Z,69.65
2023-03-05T05:58:22.273Z,66.78
2023-03-05T06:00:49.542Z,69.13
2023-03-05T06:03:16.902Z,69.63
2023-03-05T06:05:44.274Z,67.80
2023-03-05T06:08:11.654Z,63.05
2023-03-05T06:10:39.012Z,67.63
2023-03-05T06:13:06.319Z,67.85
2023-03-05T06:15:33.606Z,68.32
2023-03-05T06:18:01.038Z,64.93
2023-03-05T06:20:28.510Z,64.82
2023-03-05T06:22:55.953Z,61.25
2023-03-05T06:25:23.339Z,63.72
2023-03-05T06:27:50.622Z,65.55
2023-03-05T06:30:18.172Z,64.45
2023-03-05T06:32:45.540Z,66.75
2023-03-05T06:35:14.063Z,61.53
2023-03-05T06:37:41.385Z,62.28
2023-03-05T06:40:11.159Z,60.08
2023-03-05T06:42:38.498Z,61.35
2023-03-05T06:45:06.574Z,59.42
2023-03-05T06:47:33.896Z,60.03
2023-03-05T06:50:01.243Z,63.55
2023-03-05T06:52:28.526Z,59.60
2023-03-05T06:54:55.896Z,61.25
2023-03-05T06:57:23.362Z,62.03
2023-03-05T06:59:50.662Z,62.03
2023-03-05T07:02:19.167Z,57.53
2023-03-05T07:04:46.849Z,56.83
2023-03-05T07:07:14.208Z,62.35
2023-03-05T07:09:44.098Z,59.72
2023-03-05T07:12:11.943Z,62.10
2023-03-05T07:14:39.264Z,58.20
2023-03-05T07:17:06.866Z,65.05
2023-03-05T07:19:34.218Z,59.63
2023-03-05T07:22:01.685Z,59.80
2023-03-05T07:24:29.952Z,68.05
2023-03-05T07:26:57.524Z,61.65
2023-03-05T07:29:25.556Z,57.85
2023-03-05T07:31:52.950Z,60.92
2023-03-05T07:34:20.547Z,58.55
2023-03-05T07:36:50.966Z,57.70
2023-03-05T07:39:21.584Z,60.90
2023-03-05T07:41:50.984Z,57.88
2023-03-05T07:44:18.719Z,59.33
2023-03-05T07:46:46.282Z,60.67
2023-03-05T07:49:13.625Z,66.38
2023-03-05T07:51:40.905Z,67.07
2023-03-05T07:54:08.234Z,58.25
2023-03-05T07:56:35.819Z,57.00
2023-03-05T07:59:05.462Z,63.33
2023-03-05T08:01:33.084Z,60.08
2023-03-05T08:04:00.623Z,59.42
2023-03-05T08:06:27.978Z,63.20
2023-03-05T08:08:55.454Z,68.28
2023-03-05T08:11:22.862Z,62.25
2023-03-05T08:13:50.380Z,65.70
2023-03-05T08:16:19.417Z,58.05
2023-03-05T08:18:46.941Z,69.70
2023-03-05T08:21:22.412Z,60.22
2023-03-05T08:23:49.939Z,64.05
2023-03-05T08:26:19.364Z,61.33
2023-03-05T08:28:46.764Z,61.95
2023-03-05T08:31:14.877Z,63.83
2023-03-05T08:33:42.247Z,62.08
2023-03-05T08:36:10.198Z,64.70
2023-03-05T08:38:37.528Z,64.07
2023-03-05T08:41:05.036Z,65.95
2023-03-05T08:43:33.224Z,64.30
2023-03-05T08:46:00.931Z,62.30
2023-03-05T08:48:28.656Z,62.67
2023-03-05T08:50:56.529Z,58.15
2023-03-05T08:53:24.115Z,70.47
2023-03-05T08:55:57.897Z,57.75
2023-03-05T08:58:25.325Z,67.32
2023-03-05T09:00:52.724Z,62.58
2023-03-05T09:03:20.025Z,64.90
2023-03-05T09:05:47.414Z,61.05
2023-03-05T09:08:14.786Z,63.33
2023-03-05T09:10:43.014Z,66.43
2023-03-05T09:13:10.501Z,59.25
2023-03-05T09:15:38.186Z,60.85
2023-03-05T09:18:05.642Z,58.65
2023-03-05T09:20:33.933Z,59.35
2023-03-05T09:23:01.367Z,57.15
2023-03-05T09:25:28.747Z,65.25
2023-03-05T09:27:56.167Z,60.75
2023-03-05T09:30:23.537Z,64.97
2023-03-05T09:32:51.256Z,66.10
2023-03-05T09:35:18.671Z,56.67
2023-03-05T09:37:46.449Z,62.90
2023-03-05T09:40:16.098Z,68.47
2023-03-05T09:42:52.245Z,61.28
2023-03-05T09:45:24.434Z,66.40
2023-03-05T09:48:24.704Z,65.47
2023-03-05T09:51:03.050Z,66.38
2023-03-05T09:53:55.779Z,60.65
2023-03-05T09:56:28.577Z,61.53
2023-03-05T09:59:16.269Z,66.60
2023-03-05T10:01:43.870Z,62.42
2023-03-05T10:04:26.028Z,59.92
2023-03-05T10:06:56.381Z,57.88
2023-03-05T10:09:45.003Z,61.08
2023-03-05T10:12:42.331Z,67.25
2023-03-05T10:15:12.787Z,62.85
2023-03-05T10:17:48.182Z,64.70
2023-03-05T10:20:49.893Z,64.72
2023-03-05T10:23:29.701Z,62.72
2023-03-05T10:25:58.843Z,62.70
2023-03-05T10:28:45.028Z,74.00
2023-03-05T10:31:46.182Z,70.65
2023-03-05T10:34:44.476Z,73.55
2023-03-05T10:37:33.608Z,63.10
2023-03-05T10:40:21.159Z,63.28
2023-03-05T10:42:56.708Z,64.55
2023-03-05T10:45:47.944Z,64.78
2023-03-05T10:48:46.257Z,53.72
2023-03-05T10:51:38.446Z,65.13
2023-03-05T10:54:14.737Z,57.50
2023-03-05T10:56:42.058Z,66.57
2023-03-05T10:59:09.378Z,62.28
2023-03-05T11:01:39.606Z,52.35
2023-03-05T11:04:08.315Z,53.20
2023-03-05T11:06:39.699Z,62.63
2023-03-05T11:09:20.289Z,60.15
2023-03-05T11:12:15.245Z,55.22
2023-03-05T11:15:06.911Z,60.85
2023-03-05T11:17:37.273Z,63.22
2023-03-05T11:20:26.408Z,53.83
2023-03-05T11:23:24.308Z,58.47
2023-03-05T11:26:22.046Z,59.63
2023-03-05T11:28:52.189Z,69.43
2023-03-05T11:31:21.057Z,56.75
2023-03-05T11:34:03.386Z,53.88
2023-03-05T11:36:30.862Z,57.03
2023-03-05T11:39:10.145Z,59.10
2023-03-05T11:42:00.703Z,60.22
2023-03-05T11:44:50.567Z,54.90
2023-03-05T11:47:34.183Z,59.47
2023-03-05T11:50:05.359Z,51.80
2023-03-05T11:52:39.005Z,58.03
2023-03-05T11:55:13.122Z,60.58
2023-03-05T11:58:07.791Z,64.38
2023-03-05T12:00:36.465Z,56.80
2023-03-05T12:03:07.981Z,57.03
2023-03-05T12:05:35.523Z,58.97
2023-03-05T12:08:03.078Z,58.97
2023-03-05T12:10:30.405Z,47.58
2023-03-05T12:13:24.805Z,50.45
2023-03-05T12:16:03.827Z,46.95
2023-03-05T12:18:56.514Z,55.22
2023-03-05T12:21:56.289Z,45.55
2023-03-05T12:24:25.401Z,45.92
2023-03-05T12:27:03.796Z,50.40
2023-03-05T12:29:52.438Z,43.88
2023-03-05T12:32:23.056Z,41.80
2023-03-05T12:34:58.209Z,39.63
2023-03-05T12:37:25.622Z,43.22
2023-03-05T12:40:20.794Z,41.63
2023-03-05T12:42:52.848Z,40.50
2023-03-05T12:45:41.637Z,42.42
2023-03-05T12:48:12.670Z,45.88
2023-03-05T12:50:40.032Z,43.47
2023-03-05T12:53:07.362Z,45.47
2023-03-05T12:55:45.327Z,46.03
2023-03-05T12:58:20.106Z,41.22
2023-03-05T13:00:51.663Z,43.08
2023-03-05T13:03:30.646Z,42.08
2023-03-05T13:05:59.397Z,45.13
2023-03-05T13:08:27.621Z,38.45
2023-03-05T13:11:02.085Z,40.00
2023-03-05T13:13:31.252Z,37.45
2023-03-05T13:15:58.566Z,42.83
2023-03-05T13:18:30.185Z,38.97
2023-03-05T13:21:21.441Z,42.72
2023-03-05T13:24:01.644Z,41.45
2023-03-05T13:26:39.820Z,43.20
2023-03-05T13:29:34.778Z,40.47
2023-03-05T13:34:46.771Z,44.42
2023-03-05T13:37:22.394Z,45.63
2023-03-05T13:39:51.325Z,39.42
2023-03-05T13:42:20.210Z,43.42
2023-03-05T13:44:57.539Z,38.53
2023-03-05T13:47:28.487Z,43.25
2023-03-05T13:49:57.632Z,41.38
2023-03-05T13:52:29.755Z,41.65
2023-03-05T13:55:00.587Z,45.50
2023-03-05T13:57:44.849Z,43.05
2023-03-05T14:00:35.949Z,46.15
2023-03-05T14:03:11.602Z,41.05
2023-03-05T14:05:43.475Z,41.03
2023-03-05T14:08:19.020Z,43.13
2023-03-05T14:10:46.596Z,43.17
2023-03-05T14:13:17.954Z,45.92
2023-03-05T14:16:05.963Z,39.60
2023-03-05T14:18:33.846Z,41.20
2023-03-05T14:21:11.026Z,41.85
2023-03-05T14:23:54.852Z,39.58
2023-03-05T14:26:22.308Z,44.08
2023-03-05T14:29:08.699Z,45.20
2023-03-05T14:31:56.393Z,39.42
2023-03-05T14:34:30.080Z,43.90
2023-03-05T14:36:59.962Z,42.60
2023-03-05T14:39:28.091Z,60.40
2023-03-05T14:41:55.473Z,41.53
2023-03-05T14:44:25.482Z,40.25
2023-03-05T14:46:52.798Z,39.95
2023-03-05T14:49:20.131Z,45.60
2023-03-05T14:51:47.657Z,45.80
2023-03-05T14:54:23.049Z,46.92
2023-03-05T14:56:50.590Z,45.90
2023-03-05T14:59:18.564Z,44.38
2023-03-05T15:01:45.871Z,44.72
2023-03-05T15:04:15.541Z,48.47
2023-03-05T15:06:46.589Z,48.30
2023-03-05T15:09:17.718Z,47.22
2023-03-05T15:11:45.164Z,46.38
2023-03-05T15:14:12.484Z,40.78
2023-03-05T15:16:40.968Z,46.00
2023-03-05T15:19:11.628Z,43.58
2023-03-05T15:21:38.960Z,45.05
2023-03-05T15:24:06.556Z,48.08
2023-03-05T15:26:33.914Z,54.08
2023-03-05T15:29:01.558Z,47.42
2023-03-05T15:31:30.275Z,44.40
2023-03-05T15:33:57.613Z,43.95
2023-03-05T15:36:24.948Z,51.08
2023-03-05T15:38:52.233Z,41.22
2023-03-05T15:41:19.614Z,41.65
2023-03-05T15:43:46.907Z,40.25
2023-03-05T15:46:14.340Z,42.88
2023-03-05T15:48:44.186Z,44.30
2023-03-05T15:51:11.524Z,36.67
2023-03-05T15:53:38.872Z,39.28
2023-03-05T15:56:06.483Z,39.28
2023-03-05T15:58:33.807Z,32.83
2023-03-05T16:01:01.125Z,35.88
2023-03-05T16:03:28.555Z,33.22
2023-03-05T16:05:55.956Z,36.05
2023-03-05T16:08:23.274Z,31.88
2023-03-05T16:10:50.581Z,30.50
2023-03-05T16:13:20.560Z,30.80
2023-03-05T16:15:52.936Z,29.25
2023-03-05T16:18:21.362Z,29.60
2023-03-05T16:20:48.744Z,25.98
2023-03-05T16:23:16.120Z,30.67
2023-03-05T16:25:43.502Z,33.00
2023-03-05T16:28:10.895Z,28.58
2023-03-05T16:30:38.251Z,28.35
2023-03-05T16:33:05.705Z,27.98
2023-03-05T16:35:33.226Z,28.83
2023-03-05T16:38:00.817Z,24.70
2023-03-05T16:40:44.460Z,32.70
2023-03-05T16:43:15.891Z,23.60
2023-03-05T16:45:43.243Z,23.35
2023-03-05T16:48:10.541Z,25.92
2023-03-05T16:50:37.877Z,30.98
2023-03-05T16:53:05.261Z,27.33
2023-03-05T16:55:32.563Z,25.50
2023-03-05T16:57:59.906Z,23.63
2023-03-05T17:00:27.215Z,28.65
2023-03-05T17:02:54.871Z,32.33
2023-03-05T17:05:22.360Z,26.63
2023-03-05T17:07:49.705Z,28.52
2023-03-05T17:10:18.615Z,31.27
2023-03-05T17:12:47.480Z,29.55
2023-03-05T17:15:14.794Z,26.10
2023-03-05T17:17:42.535Z,27.48
2023-03-05T17:20:10.740Z,31.45
2023-03-05T17:22:38.042Z,23.77
2023-03-05T17:25:05.805Z,32.97
2023-03-05T17:27:33.170Z,28.73
2023-03-05T17:30:00.630Z,29.20
2023-03-05T17:32:27.973Z,25.90
2023-03-05T17:34:55.805Z,27.67
2023-03-05T17:37:23.276Z,29.15
2023-03-05T17:39:50.654Z,25.92
2023-03-05T17:42:20.511Z,29.52
2023-03-05T17:47:16.811Z,25.67
2023-03-05T17:49:44.127Z,26.48
2023-03-05T17:52:11.466Z,27.60
2023-03-05T17:54:38.824Z,30.27
2023-03-05T17:57:06.146Z,27.38
2023-03-05T17:59:33.464Z,28.08
2023-03-05T18:02:00.848Z,32.03
2023-03-05T18:04:28.162Z,27.85
2023-03-05T18:06:55.505Z,27.10
2023-03-05T18:09:22.809Z,28.23
2023-03-05T18:11:50.139Z,27.02
2023-03-05T18:14:18.682Z,29.55
2023-03-05T18:16:46.144Z,26.83
2023-03-05T18:19:13.592Z,31.77
2023-03-05T18:21:41.149Z,29.40
2023-03-05T18:24:08.872Z,26.90
2023-03-05T18:26:36.220Z,30.25
2023-03-05T18:29:03.638Z,28.42
2023-03-05T18:31:30.928Z,28.60
2023-03-05T18:33:58.368Z,39.65
2023-03-05T18:36:25.779Z,29.52
2023-03-05T18:38:53.051Z,26.45
2023-03-05T18:41:21.906Z,27.40
2023-03-05T18:43:50.494Z,27.92
2023-03-05T18:46:18.388Z,25.48
2023-03-05T18:48:47.766Z,26.85
2023-03-05T18:51:16.585Z,25.80
2023-03-05T18:53:43.950Z,24.25
2023-03-05T18:56:11.306Z,26.30
2023-03-05T18:58:39.565Z,26.05
2023-03-05T19:01:07.129Z,26.42
2023-03-05T19:03:34.571Z,31.17
2023-03-05T19:06:01.950Z,37.15
2023-03-05T19:08:29.278Z,31.67
2023-03-05T19:10:56.561Z,28.30
2023-03-05T19:13:36.805Z,27.88
2023-03-05T19:16:08.920Z,29.38
2023-03-05T19:19:15.924Z,28.13
2023-03-05T19:21:44.338Z,28.30
2023-03-05T19:24:11.721Z,28.45
2023-03-05T19:26:39.340Z,25.30
2023-03-05T19:29:06.973Z,27.02
2023-03-05T19:31:34.682Z,25.52
2023-03-05T19:34:03.303Z,25.23
2023-03-05T19:36:31.321Z,29.38
2023-03-05T19:38:58.786Z,29.45
2023-03-05T19:41:27.696Z,28.60
2023-03-05T19:43:55.120Z,30.55
2023-03-05T19:46:22.589Z,30.02
2023-03-05T19:48:50.036Z,26.98
2023-03-05T19:51:19.696Z,27.95
2023-03-05T19:53:47.384Z,26.20
2023-03-05T19:56:17.790Z,26.75
2023-03-05T19:58:45.555Z,27.45
2023-03-05T20:01:20.845Z,32.08
2023-03-05T20:03:49.905Z,25.02
2023-03-05T20:06:17.409Z,28.48
2023-03-05T20:08:44.800Z,30.60
2023-03-05T20:11:13.187Z,36.00
2023-03-05T20:13:40.720Z,35.00
2023-03-05T20:16:15.761Z,27.83
2023-03-05T20:18:43.411Z,32.38
2023-03-05T20:21:10.987Z,27.52
2023-03-05T20:23:38.295Z,27.65
2023-03-05T20:26:06.736Z,28.35
2023-03-05T20:28:34.226Z,30.48
2023-03-05T20:31:01.795Z,35.38
2023-03-05T20:33:29.260Z,35.22
2023-03-05T20:35:56.701Z,32.33
2023-03-05T20:38:30.230Z,32.55
2023-03-05T20:41:02.310Z,34.53
2023-03-05T20:43:31.605Z,33.88
2023-03-05T20:45:59.189Z,35.78
2023-03-05T20:48:27.648Z,35.38
2023-03-05T20:50:55.425Z,41.97
2023-03-05T20:53:22.842Z,31.02
2023-03-05T20:55:50.157Z,31.73
2023-03-05T20:58:17.495Z,34.95
2023-03-05T21:00:44.818Z,34.60
2023-03-05T21:03:12.717Z,30.08
2023-03-05T21:05:40.107Z,34.17
2023-03-05T21:08:07.484Z,28.00
2023-03-05T21:10:34.830Z,32.42
2023-03-05T21:13:02.212Z,31.85
2023-03-05T21:15:29.820Z,31.02
2023-03-05T21:17:57.313Z,30.92
2023-03-05T21:20:29.035Z,32.63
2023-03-05T21:22:56.918Z,31.30
2023-03-05T21:25:29.100Z,32.72
2023-03-05T21:28:00.471Z,33.65
2023-03-05T21:30:38.569Z,32.90
2023-03-05T21:33:08.887Z,37.55
2023-03-05T21:35:36.544Z,34.20
2023-03-05T21:38:04.492Z,38.28
2023-03-05T21:40:32.057Z,40.65
2023-03-05T21:42:59.514Z,34.17
2023-03-05T21:45:30.240Z,34.50
2023-03-05T21:47:59.115Z,39.35
2023-03-05T21:50:26.645Z,37.78
2023-03-05T21:52:54.219Z,34.92
2023-03-05T21:55:29.849Z,37.65
2023-03-05T21:58:22.991Z,37.70
2023-03-05T22:00:50.323Z,43.08
2023-03-05T22:03:17.663Z,39.53
2023-03-05T22:05:45.135Z,37.70
2023-03-05T22:08:12.470Z,41.67
2023-03-05T22:10:40.494Z,40.58
2023-03-05T22:13:11.081Z,40.58
2023-03-05T22:15:46.353Z,40.22
2023-03-05T22:18:14.783Z,41.00
2023-03-05T22:20:42.226Z,41.03
2023-03-05T22:23:09.617Z,39.13
2023-03-05T22:25:37.307Z,39.72
2023-03-05T22:28:05.614Z,41.72
2023-03-05T22:30:33.137Z,34.60
2023-03-05T22:33:01.205Z,37.03
2023-03-05T22:35:29.322Z,39.58
2023-03-05T22:37:57.587Z,34.42
2023-03-05T22:40:24.968Z,33.97
2023-03-05T22:42:53.380Z,35.22
2023-03-05T22:45:20.825Z,35.97
2023-03-05T22:47:49.363Z,35.67
2023-03-05T22:50:17.660Z,30.60
2023-03-05T22:52:44.984Z,34.08
2023-03-05T22:55:15.649Z,32.25
2023-03-05T22:57:43.337Z,39.92
2023-03-05T23:00:16.450Z,31.45
2023-03-05T23:02:43.934Z,33.63
2023-03-05T23:05:11.405Z,30.77
2023-03-05T23:07:40.037Z,34.78
2023-03-05T23:10:10.569Z,32.22
2023-03-05T23:12:40.221Z,32.10
2023-03-05T23:15:09.285Z,37.00
2023-03-05T23:17:36.626Z,33.67
2023-03-05T23:20:05.289Z,27.90
2023-03-05T23:22:32.573Z,30.10
2023-03-05T23:25:00.120Z,31.50
2023-03-05T23:27:27.454Z,33.08
2023-03-05T23:30:17.636Z,36.05
2023-03-05T23:33:14.236Z,33.55
2023-03-05T23:35:43.486Z,37.42
2023-03-05T23:38:14.184Z,30.33
2023-03-05T23:40:48.945Z,32.95
2023-03-05T23:43:16.900Z,33.80
2023-03-05T23:45:45.056Z,34.78
2023-03-05T23:48:12.364Z,34.95
2023-03-05T23:50:41.640Z,33.58
2023-03-05T23:53:09.064Z,35.88
2023-03-05T23:55:40.136Z,31.20
2023-03-05T23:58:07.546Z,31.20
